createdAt,value
2018-09-20T00:00:59.404Z,25.41
2018-09-20T00:01:59.402Z,25.39
2018-09-20T00:02:59.395Z,25.42
2018-09-20T00:03:59.364Z,25.45
2018-09-20T00:04:59.354Z,25.41
2018-09-20T00:05:59.343Z,25.39
2018-09-20T00:06:59.330Z,25.38
2018-09-20T00:07:59.332Z,25.34
2018-09-20T00:08:59.315Z,25.42
2018-09-20T00:09:59.298Z,25.44
2018-09-20T00:10:59.285Z,25.38
2018-09-20T00:11:59.277Z,25.34
2018-09-20T00:12:59.280Z,25.42
2018-09-20T00:13:59.254Z,25.37
2018-09-20T00:14:59.257Z,25.37
2018-09-20T00:15:59.236Z,25.45
2018-09-20T00:16:59.221Z,25.37
2018-09-20T00:17:59.220Z,25.33
2018-09-20T00:18:59.198Z,25.37
2018-09-20T00:19:59.186Z,25.39
2018-09-20T00:20:59.176Z,25.41
2018-09-20T00:21:59.162Z,25.41
2018-09-20T00:22:59.189Z,25.41
2018-09-20T00:23:59.192Z,25.33
2018-09-20T00:24:59.129Z,25.41
2018-09-20T00:25:59.126Z,25.39
2018-09-20T00:26:59.107Z,25.44
2018-09-20T00:27:59.113Z,25.39
2018-09-20T00:28:59.095Z,25.38
2018-09-20T00:29:59.074Z,25.38
2018-09-20T00:30:59.068Z,25.45
2018-09-20T00:31:59.054Z,25.45
2018-09-20T00:32:59.052Z,25.34
2018-09-20T00:33:59.031Z,25.38
2018-09-20T00:34:59.022Z,25.34
2018-09-20T00:35:59.011Z,25.38
2018-09-20T00:36:58.999Z,25.38
2018-09-20T00:37:59.001Z,25.41
2018-09-20T00:38:58.975Z,25.39
2018-09-20T00:39:58.969Z,25.27
2018-09-20T00:40:58.952Z,25.38
2018-09-20T00:41:58.944Z,25.41
2018-09-20T00:42:58.943Z,25.34
2018-09-20T00:43:58.919Z,25.37
2018-09-20T00:44:58.912Z,25.34
2018-09-20T00:46:05.923Z,25.37
2018-09-20T00:46:58.884Z,25.34
2018-09-20T00:47:58.886Z,25.32
2018-09-20T00:48:58.862Z,25.37
2018-09-20T00:49:58.853Z,25.34
2018-09-20T00:50:58.840Z,25.37
2018-09-20T00:51:58.829Z,25.27
2018-09-20T00:52:58.834Z,25.27
2018-09-20T00:53:58.815Z,25.26
2018-09-20T00:54:58.806Z,25.23
2018-09-20T00:55:58.829Z,25.24
2018-09-20T00:56:58.772Z,25.29
2018-09-20T00:57:58.773Z,25.27
2018-09-20T00:58:58.758Z,25.27
2018-09-20T00:59:58.740Z,25.27
2018-09-20T01:00:58.730Z,25.27
2018-09-20T01:01:58.798Z,25.27
2018-09-20T01:02:58.721Z,25.27
2018-09-20T01:03:58.697Z,25.22
2018-09-20T01:04:58.689Z,25.27
2018-09-20T01:05:58.672Z,25.34
2018-09-20T01:06:58.665Z,25.27
2018-09-20T01:07:58.672Z,25.26
2018-09-20T01:08:58.648Z,25.23
2018-09-20T01:09:58.628Z,25.26
2018-09-20T01:10:58.619Z,25.26
2018-09-20T01:11:58.606Z,25.24
2018-09-20T01:12:58.621Z,25.23
2018-09-20T01:13:58.593Z,25.24
2018-09-20T01:14:58.574Z,25.27
2018-09-20T01:15:58.568Z,25.27
2018-09-20T01:16:58.552Z,25.22
2018-09-20T01:17:58.543Z,25.29
2018-09-20T01:18:58.545Z,25.22
2018-09-20T01:19:58.518Z,25.22
2018-09-20T01:20:58.510Z,25.30
2018-09-20T01:21:58.497Z,25.27
2018-09-20T01:22:58.485Z,25.29
2018-09-20T01:23:58.485Z,25.26
2018-09-20T01:24:58.463Z,25.30
2018-09-20T01:25:58.456Z,25.24
2018-09-20T01:26:58.440Z,25.27
2018-09-20T01:27:58.429Z,25.29
2018-09-20T01:28:58.432Z,25.22
2018-09-20T01:29:58.408Z,25.30
2018-09-20T01:30:58.396Z,25.26
2018-09-20T01:31:58.427Z,25.26
2018-09-20T01:32:58.373Z,25.24
2018-09-20T01:33:58.384Z,25.29
2018-09-20T01:34:58.352Z,25.27
2018-09-20T01:35:58.361Z,25.24
2018-09-20T01:36:58.330Z,25.20
2018-09-20T01:37:58.334Z,25.23
2018-09-20T01:38:58.320Z,25.32
2018-09-20T01:39:58.300Z,25.32
2018-09-20T01:40:58.286Z,25.30
2018-09-20T01:41:58.275Z,25.26
2018-09-20T01:42:58.268Z,25.27
2018-09-20T01:43:58.260Z,25.24
2018-09-20T01:44:58.240Z,25.24
2018-09-20T01:45:58.227Z,25.30
2018-09-20T01:46:58.219Z,25.22
2018-09-20T01:47:58.222Z,25.24
2018-09-20T01:48:58.210Z,25.23
2018-09-20T01:49:58.186Z,25.27
2018-09-20T01:50:58.174Z,25.30
2018-09-20T01:51:58.163Z,25.24
2018-09-20T01:52:58.151Z,25.22
2018-09-20T01:53:58.168Z,25.22
2018-09-20T01:54:58.141Z,25.27
2018-09-20T01:55:58.121Z,25.29
2018-09-20T01:56:58.107Z,25.26
2018-09-20T01:57:58.095Z,25.22
2018-09-20T01:58:58.096Z,25.22
2018-09-20T01:59:58.076Z,25.27
2018-09-20T02:00:58.068Z,25.26
2018-09-20T02:01:58.052Z,25.22
2018-09-20T02:02:58.041Z,25.27
2018-09-20T02:03:58.041Z,25.24
2018-09-20T02:04:58.018Z,25.27
2018-09-20T02:05:58.010Z,25.22
2018-09-20T02:06:57.998Z,25.22
2018-09-20T02:07:57.985Z,25.23
2018-09-20T02:08:57.984Z,25.23
2018-09-20T02:09:57.962Z,25.26
2018-09-20T02:10:57.954Z,25.27
2018-09-20T02:11:57.945Z,25.26
2018-09-20T02:12:57.929Z,25.22
2018-09-20T02:13:57.929Z,25.24
2018-09-20T02:14:57.910Z,25.20
2018-09-20T02:15:57.896Z,25.22
2018-09-20T02:16:57.885Z,25.26
2018-09-20T02:17:57.893Z,25.23
2018-09-20T02:18:57.875Z,25.19
2018-09-20T02:19:57.852Z,25.19
2018-09-20T02:20:57.839Z,25.20
2018-09-20T02:21:57.831Z,25.22
2018-09-20T02:22:57.817Z,25.20
2018-09-20T02:23:57.828Z,25.20
2018-09-20T02:24:57.798Z,25.27
2018-09-20T02:25:57.784Z,25.12
2018-09-20T02:26:57.774Z,25.15
2018-09-20T02:27:57.765Z,25.17
2018-09-20T02:28:57.763Z,25.23
2018-09-20T02:29:57.748Z,25.27
2018-09-20T02:30:57.729Z,25.23
2018-09-20T02:31:57.720Z,25.11
2018-09-20T02:32:57.707Z,25.24
2018-09-20T02:33:57.713Z,25.19
2018-09-20T02:34:57.686Z,25.20
2018-09-20T02:35:57.679Z,25.09
2018-09-20T02:36:57.670Z,25.19
2018-09-20T02:37:57.651Z,25.19
2018-09-20T02:38:57.657Z,25.19
2018-09-20T02:39:57.630Z,25.19
2018-09-20T02:40:57.627Z,25.15
2018-09-20T02:41:57.605Z,25.09
2018-09-20T02:42:57.600Z,25.12
2018-09-20T02:43:57.598Z,25.17
2018-09-20T02:44:57.576Z,25.14
2018-09-20T02:45:57.568Z,25.20
2018-09-20T02:46:57.550Z,25.11
2018-09-20T02:47:57.539Z,25.19
2018-09-20T02:48:57.550Z,25.15
2018-09-20T02:49:57.519Z,25.17
2018-09-20T02:50:57.508Z,25.08
2018-09-20T02:51:57.512Z,25.12
2018-09-20T02:52:57.485Z,25.14
2018-09-20T02:53:57.472Z,25.08
2018-09-20T02:54:57.479Z,25.17
2018-09-20T02:55:57.450Z,25.19
2018-09-20T02:56:57.446Z,25.09
2018-09-20T02:57:57.429Z,25.07
2018-09-20T02:58:57.496Z,25.14
2018-09-20T02:59:57.418Z,25.17
2018-09-20T03:00:57.393Z,25.07
2018-09-20T03:01:57.390Z,25.14
2018-09-20T03:02:57.380Z,25.09
2018-09-20T03:03:57.383Z,25.15
2018-09-20T03:04:57.360Z,25.12
2018-09-20T03:05:57.339Z,25.15
2018-09-20T03:06:57.328Z,25.15
2018-09-20T03:07:57.318Z,25.14
2018-09-20T03:08:57.304Z,25.09
2018-09-20T03:09:57.310Z,25.11
2018-09-20T03:10:57.282Z,25.11
2018-09-20T03:11:57.274Z,25.17
2018-09-20T03:12:57.262Z,25.09
2018-09-20T03:13:57.247Z,25.12
2018-09-20T03:14:57.254Z,25.09
2018-09-20T03:15:57.234Z,25.11
2018-09-20T03:16:57.216Z,25.12
2018-09-20T03:17:57.204Z,25.11
2018-09-20T03:18:57.192Z,25.11
2018-09-20T03:19:57.195Z,25.12
2018-09-20T03:20:57.168Z,25.09
2018-09-20T03:21:57.162Z,25.11
2018-09-20T03:22:57.156Z,25.08
2018-09-20T03:23:57.135Z,25.09
2018-09-20T03:24:57.139Z,25.09
2018-09-20T03:25:57.116Z,25.04
2018-09-20T03:26:57.134Z,25.09
2018-09-20T03:27:57.095Z,25.12
2018-09-20T03:28:57.095Z,25.11
2018-09-20T03:29:57.107Z,25.12
2018-09-20T03:30:57.069Z,25.07
2018-09-20T03:31:57.048Z,25.15
2018-09-20T03:32:57.039Z,25.09
2018-09-20T03:33:57.025Z,25.11
2018-09-20T03:34:57.024Z,25.08
2018-09-20T03:35:57.001Z,25.12
2018-09-20T03:36:56.990Z,25.12
2018-09-20T03:37:56.987Z,25.14
2018-09-20T03:38:56.971Z,25.08
2018-09-20T03:39:56.993Z,25.11
2018-09-20T03:40:56.949Z,25.09
2018-09-20T03:41:56.933Z,25.12
2018-09-20T03:42:56.934Z,25.14
2018-09-20T03:43:56.911Z,25.15
2018-09-20T03:44:56.916Z,25.14
2018-09-20T03:45:56.891Z,25.11
2018-09-20T03:46:56.880Z,25.12
2018-09-20T03:47:56.874Z,25.09
2018-09-20T03:48:56.854Z,25.11
2018-09-20T03:49:56.871Z,25.05
2018-09-20T03:50:56.835Z,25.09
2018-09-20T03:51:56.826Z,25.11
2018-09-20T03:52:56.813Z,25.05
2018-09-20T03:53:56.815Z,25.05
2018-09-20T03:54:56.804Z,25.12
2018-09-20T03:55:56.777Z,25.17
2018-09-20T03:56:56.764Z,25.11
2018-09-20T03:57:56.752Z,25.08
2018-09-20T03:58:56.752Z,25.15
2018-09-20T03:59:56.743Z,25.15
2018-09-20T04:00:56.741Z,25.08
2018-09-20T04:01:56.714Z,25.09
2018-09-20T04:02:56.729Z,25.09
2018-09-20T04:03:56.691Z,25.20
2018-09-20T04:04:56.688Z,25.05
2018-09-20T04:05:56.675Z,25.11
2018-09-20T04:06:56.653Z,25.15
2018-09-20T04:07:56.643Z,25.12
2018-09-20T04:08:56.632Z,25.12
2018-09-20T04:09:56.650Z,25.14
2018-09-20T04:10:56.610Z,25.11
2018-09-20T04:11:56.608Z,25.12
2018-09-20T04:12:56.613Z,25.12
2018-09-20T04:13:56.582Z,25.12
2018-09-20T04:14:56.578Z,25.09
2018-09-20T04:15:56.561Z,25.12
2018-09-20T04:16:56.551Z,25.11
2018-09-20T04:17:56.535Z,25.14
2018-09-20T04:18:56.523Z,25.11
2018-09-20T04:19:56.533Z,25.12
2018-09-20T04:20:56.503Z,25.09
2018-09-20T04:21:56.491Z,25.12
2018-09-20T04:22:56.479Z,25.12
2018-09-20T04:23:56.467Z,25.11
2018-09-20T04:24:56.485Z,25.08
2018-09-20T04:26:03.968Z,25.09
2018-09-20T04:27:03.962Z,25.09
2018-09-20T04:27:56.421Z,25.12
2018-09-20T04:29:03.944Z,25.08
2018-09-20T04:30:03.428Z,25.01
2018-09-20T04:30:56.389Z,25.02
2018-09-20T04:31:56.466Z,25.04
2018-09-20T04:32:56.365Z,25.07
2018-09-20T04:33:56.354Z,25.04
2018-09-20T04:34:56.344Z,25.05
2018-09-20T04:35:56.361Z,24.94
2018-09-20T04:36:56.325Z,25.00
2018-09-20T04:37:56.325Z,25.09
2018-09-20T04:38:56.300Z,25.08
2018-09-20T04:39:56.288Z,25.02
2018-09-20T04:40:56.296Z,25.04
2018-09-20T04:41:56.282Z,24.96
2018-09-20T04:42:56.254Z,25.07
2018-09-20T04:43:56.251Z,25.08
2018-09-20T04:44:56.232Z,25.02
2018-09-20T04:45:56.249Z,25.07
2018-09-20T04:46:56.213Z,25.04
2018-09-20T04:47:56.199Z,25.04
2018-09-20T04:48:56.214Z,25.01
2018-09-20T04:49:56.179Z,25.07
2018-09-20T04:50:56.175Z,25.05
2018-09-20T04:51:56.152Z,25.07
2018-09-20T04:52:56.161Z,25.02
2018-09-20T04:53:56.132Z,25.00
2018-09-20T04:54:56.122Z,25.02
2018-09-20T04:55:56.125Z,25.04
2018-09-20T04:56:56.097Z,25.05
2018-09-20T04:57:56.086Z,25.15
2018-09-20T04:58:56.085Z,25.01
2018-09-20T04:59:56.136Z,25.02
2018-09-20T05:00:56.064Z,25.02
2018-09-20T05:01:56.041Z,25.07
2018-09-20T05:02:56.035Z,25.04
2018-09-20T05:03:56.018Z,25.05
2018-09-20T05:04:56.006Z,25.05
2018-09-20T05:05:56.029Z,25.00
2018-09-20T05:06:56.000Z,25.07
2018-09-20T05:07:55.973Z,25.01
2018-09-20T05:08:55.962Z,25.05
2018-09-20T05:09:55.960Z,25.04
2018-09-20T05:10:55.952Z,25.07
2018-09-20T05:11:55.951Z,25.00
2018-09-20T05:12:55.925Z,24.94
2018-09-20T05:13:55.905Z,25.07
2018-09-20T05:14:55.898Z,25.07
2018-09-20T05:15:55.904Z,25.05
2018-09-20T05:16:55.878Z,25.02
2018-09-20T05:17:55.864Z,25.05
2018-09-20T05:18:55.850Z,24.94
2018-09-20T05:19:55.840Z,25.02
2018-09-20T05:20:55.844Z,25.00
2018-09-20T05:21:55.816Z,24.97
2018-09-20T05:22:55.807Z,25.05
2018-09-20T05:23:55.800Z,25.01
2018-09-20T05:24:55.791Z,25.08
2018-09-20T05:25:55.787Z,25.09
2018-09-20T05:26:55.763Z,25.11
2018-09-20T05:27:55.751Z,25.01
2018-09-20T05:28:55.758Z,25.07
2018-09-20T05:29:55.728Z,25.01
2018-09-20T05:30:55.732Z,25.09
2018-09-20T05:31:55.703Z,25.04
2018-09-20T05:32:55.699Z,25.05
2018-09-20T05:33:55.689Z,25.07
2018-09-20T05:34:55.690Z,25.04
2018-09-20T05:35:55.672Z,25.02
2018-09-20T05:36:55.651Z,24.94
2018-09-20T05:37:55.639Z,25.04
2018-09-20T05:38:55.624Z,25.01
2018-09-20T05:39:55.620Z,24.94
2018-09-20T05:40:55.617Z,25.01
2018-09-20T05:41:55.596Z,25.12
2018-09-20T05:42:55.589Z,24.90
2018-09-20T05:43:55.570Z,25.00
2018-09-20T05:44:55.563Z,25.11
2018-09-20T05:45:55.565Z,25.14
2018-09-20T05:46:55.540Z,24.96
2018-09-20T05:47:55.534Z,25.08
2018-09-20T05:48:55.520Z,25.11
2018-09-20T05:49:55.507Z,25.01
2018-09-20T05:50:55.564Z,25.01
2018-09-20T05:51:55.485Z,25.01
2018-09-20T05:52:55.473Z,25.04
2018-09-20T05:53:55.474Z,24.97
2018-09-20T05:54:55.458Z,25.01
2018-09-20T05:55:55.460Z,25.02
2018-09-20T05:56:55.434Z,25.07
2018-09-20T05:57:55.447Z,25.04
2018-09-20T05:58:55.412Z,25.04
2018-09-20T05:59:55.402Z,25.05
2018-09-20T06:00:55.422Z,24.97
2018-09-20T06:01:55.382Z,25.02
2018-09-20T06:02:55.367Z,25.04
2018-09-20T06:03:55.357Z,25.04
2018-09-20T06:04:55.353Z,25.05
2018-09-20T06:05:55.375Z,25.01
2018-09-20T06:06:55.343Z,25.04
2018-09-20T06:07:55.313Z,25.02
2018-09-20T06:08:55.302Z,25.01
2018-09-20T06:09:55.295Z,25.02
2018-09-20T06:10:55.281Z,25.01
2018-09-20T06:11:55.283Z,25.05
2018-09-20T06:12:55.273Z,25.02
2018-09-20T06:13:55.252Z,25.08
2018-09-20T06:14:55.240Z,25.05
2018-09-20T06:15:55.229Z,25.04
2018-09-20T06:16:55.228Z,25.01
2018-09-20T06:17:55.205Z,25.02
2018-09-20T06:18:55.204Z,25.07
2018-09-20T06:19:55.187Z,25.07
2018-09-20T06:20:55.199Z,25.05
2018-09-20T06:21:55.225Z,25.07
2018-09-20T06:22:55.152Z,25.05
2018-09-20T06:23:55.146Z,25.08
2018-09-20T06:24:55.133Z,25.07
2018-09-20T06:25:55.119Z,25.14
2018-09-20T06:26:55.124Z,25.09
2018-09-20T06:27:55.097Z,25.09
2018-09-20T06:28:55.084Z,25.07
2018-09-20T06:29:55.088Z,25.07
2018-09-20T06:30:55.091Z,25.09
2018-09-20T06:31:55.070Z,25.12
2018-09-20T06:32:55.042Z,25.09
2018-09-20T06:33:55.029Z,25.12
2018-09-20T06:34:55.053Z,25.15
2018-09-20T06:35:55.013Z,25.15
2018-09-20T06:36:55.056Z,25.05
2018-09-20T06:37:54.985Z,25.08
2018-09-20T06:38:54.974Z,25.14
2018-09-20T06:39:54.962Z,25.09
2018-09-20T06:40:55.050Z,25.17
2018-09-20T06:41:54.955Z,25.20
2018-09-20T06:42:54.943Z,25.09
2018-09-20T06:43:54.940Z,25.12
2018-09-20T06:44:54.915Z,25.22
2018-09-20T06:45:54.895Z,25.20
2018-09-20T06:46:54.903Z,25.19
2018-09-20T06:47:54.875Z,25.23
2018-09-20T06:48:54.869Z,25.26
2018-09-20T06:49:54.856Z,25.24
2018-09-20T06:50:54.840Z,25.24
2018-09-20T06:51:54.854Z,25.23
2018-09-20T06:53:04.141Z,25.22
2018-09-20T06:53:54.806Z,25.27
2018-09-20T06:55:02.010Z,25.22
2018-09-20T06:55:54.789Z,25.22
2018-09-20T06:56:54.786Z,25.19
2018-09-20T06:57:54.763Z,25.17
2018-09-20T06:58:54.752Z,25.22
2018-09-20T06:59:54.744Z,25.15
2018-09-20T07:00:54.733Z,25.19
2018-09-20T07:01:54.734Z,25.22
2018-09-20T07:02:54.726Z,25.26
2018-09-20T07:03:54.698Z,25.27
2018-09-20T07:04:54.689Z,25.26
2018-09-20T07:05:54.675Z,25.26
2018-09-20T07:06:54.703Z,25.30
2018-09-20T07:07:54.656Z,25.27
2018-09-20T07:08:54.648Z,25.23
2018-09-20T07:09:54.631Z,25.23
2018-09-20T07:10:54.618Z,25.26
2018-09-20T07:11:54.623Z,25.26
2018-09-20T07:12:54.598Z,25.42
2018-09-20T07:13:54.592Z,25.33
2018-09-20T07:14:54.574Z,25.39
2018-09-20T07:15:54.568Z,25.45
2018-09-20T07:16:54.586Z,25.34
2018-09-20T07:17:54.539Z,25.39
2018-09-20T07:18:54.530Z,25.44
2018-09-20T07:19:54.523Z,25.41
2018-09-20T07:20:54.509Z,25.34
2018-09-20T07:21:54.520Z,25.48
2018-09-20T07:22:54.485Z,25.44
2018-09-20T07:23:54.474Z,25.47
2018-09-20T07:24:54.460Z,25.44
2018-09-20T07:25:54.460Z,25.45
2018-09-20T07:26:54.444Z,25.51
2018-09-20T07:27:54.454Z,25.49
2018-09-20T07:28:54.419Z,25.45
2018-09-20T07:29:54.406Z,25.52
2018-09-20T07:30:54.398Z,25.60
2018-09-20T07:31:54.385Z,25.56
2018-09-20T07:32:54.423Z,25.49
2018-09-20T07:33:54.364Z,25.52
2018-09-20T07:34:54.354Z,25.62
2018-09-20T07:35:54.343Z,25.67
2018-09-20T07:36:54.343Z,25.62
2018-09-20T07:37:54.339Z,25.60
2018-09-20T07:38:54.319Z,25.66
2018-09-20T07:39:54.301Z,25.67
2018-09-20T07:40:54.287Z,25.57
2018-09-20T07:41:54.277Z,25.64
2018-09-20T07:42:54.286Z,25.67
2018-09-20T07:43:54.254Z,25.69
2018-09-20T07:44:54.244Z,25.64
2018-09-20T07:45:54.241Z,25.74
2018-09-20T07:46:54.222Z,25.67
2018-09-20T07:47:54.223Z,25.78
2018-09-20T07:48:54.200Z,25.67
2018-09-20T07:49:54.187Z,25.79
2018-09-20T07:50:54.176Z,25.79
2018-09-20T07:51:54.172Z,25.82
2018-09-20T07:52:54.188Z,25.69
2018-09-20T07:53:54.212Z,25.85
2018-09-20T07:54:54.138Z,25.78
2018-09-20T07:55:54.121Z,25.79
2018-09-20T07:56:54.112Z,25.75
2018-09-20T07:57:54.114Z,25.78
2018-09-20T07:58:54.095Z,25.79
2018-09-20T07:59:54.081Z,25.78
2018-09-20T08:00:54.068Z,25.84
2018-09-20T08:01:54.086Z,25.79
2018-09-20T08:02:54.078Z,25.85
2018-09-20T08:03:54.037Z,25.84
2018-09-20T08:04:54.019Z,25.84
2018-09-20T08:05:54.009Z,25.88
2018-09-20T08:06:54.001Z,25.89
2018-09-20T08:07:54.000Z,25.88
2018-09-20T08:08:53.982Z,25.89
2018-09-20T08:09:53.974Z,25.97
2018-09-20T08:10:53.963Z,25.94
2018-09-20T08:11:53.947Z,25.93
2018-09-20T08:12:53.997Z,25.99
2018-09-20T08:13:53.939Z,25.89
2018-09-20T08:14:53.910Z,25.91
2018-09-20T08:15:53.903Z,26.04
2018-09-20T08:16:53.898Z,25.94
2018-09-20T08:17:53.891Z,26.06
2018-09-20T08:18:53.868Z,26.00
2018-09-20T08:19:53.857Z,26.01
2018-09-20T08:20:53.845Z,26.06
2018-09-20T08:21:53.837Z,26.06
2018-09-20T08:22:53.842Z,26.06
2018-09-20T08:23:53.816Z,26.11
2018-09-20T08:24:53.803Z,26.11
2018-09-20T08:25:53.822Z,26.09
2018-09-20T08:26:53.785Z,26.07
2018-09-20T08:27:53.852Z,26.11
2018-09-20T08:28:53.774Z,26.17
2018-09-20T08:29:53.749Z,26.11
2018-09-20T08:30:53.739Z,26.09
2018-09-20T08:31:53.728Z,26.09
2018-09-20T08:32:55.238Z,26.15
2018-09-20T08:33:53.712Z,26.11
2018-09-20T08:34:53.699Z,26.12
2018-09-20T08:35:53.684Z,26.09
2018-09-20T08:36:53.678Z,26.16
2018-09-20T08:37:53.661Z,26.12
2018-09-20T08:38:53.692Z,26.07
2018-09-20T08:39:53.643Z,26.03
2018-09-20T08:40:53.635Z,26.11
2018-09-20T08:41:53.618Z,26.16
2018-09-20T08:42:53.614Z,26.15
2018-09-20T08:43:53.610Z,26.06
2018-09-20T08:44:53.588Z,26.16
2018-09-20T08:45:53.584Z,26.15
2018-09-20T08:46:53.573Z,26.17
2018-09-20T08:47:53.553Z,26.15
2018-09-20T08:48:53.570Z,26.17
2018-09-20T08:49:53.549Z,26.11
2018-09-20T08:50:53.536Z,26.06
2018-09-20T08:51:53.513Z,26.12
2018-09-20T08:52:53.507Z,26.15
2018-09-20T08:53:53.501Z,26.09
2018-09-20T08:54:53.481Z,26.15
2018-09-20T08:55:53.470Z,26.09
2018-09-20T08:56:53.545Z,26.16
2018-09-20T08:57:53.448Z,26.12
2018-09-20T08:58:53.479Z,26.16
2018-09-20T08:59:53.425Z,26.09
2018-09-20T09:00:53.413Z,26.07
2018-09-20T09:01:53.415Z,26.07
2018-09-20T09:02:53.399Z,26.07
2018-09-20T09:03:53.402Z,26.06
2018-09-20T09:04:53.369Z,26.06
2018-09-20T09:05:53.369Z,26.12
2018-09-20T09:06:53.347Z,26.11
2018-09-20T09:07:53.337Z,26.11
2018-09-20T09:08:53.340Z,26.04
2018-09-20T09:09:53.316Z,26.06
2018-09-20T09:10:53.303Z,26.11
2018-09-20T09:11:53.381Z,25.96
2018-09-20T09:12:53.281Z,26.06
2018-09-20T09:13:53.290Z,26.04
2018-09-20T09:14:53.260Z,26.04
2018-09-20T09:15:53.252Z,25.97
2018-09-20T09:16:53.237Z,26.06
2018-09-20T09:17:53.227Z,26.00
2018-09-20T09:18:53.231Z,26.03
2018-09-20T09:19:53.215Z,25.93
2018-09-20T09:20:53.199Z,25.96
2018-09-20T09:21:53.187Z,26.03
2018-09-20T09:22:53.175Z,26.03
2018-09-20T09:23:53.174Z,25.96
2018-09-20T09:24:53.154Z,26.06
2018-09-20T09:25:53.161Z,25.96
2018-09-20T09:26:53.176Z,26.06
2018-09-20T09:27:53.122Z,26.00
2018-09-20T09:28:53.129Z,26.00
2018-09-20T09:29:53.097Z,25.96
2018-09-20T09:30:53.091Z,26.00
2018-09-20T09:31:53.078Z,25.94
2018-09-20T09:32:53.082Z,25.94
2018-09-20T09:33:53.095Z,25.99
2018-09-20T09:34:53.062Z,25.93
2018-09-20T09:35:53.033Z,26.03
2018-09-20T09:36:53.034Z,26.03
2018-09-20T09:37:53.020Z,26.01
2018-09-20T09:38:53.027Z,26.01
2018-09-20T09:39:52.996Z,26.00
2018-09-20T09:40:52.993Z,26.03
2018-09-20T09:41:52.973Z,25.96
2018-09-20T09:42:52.972Z,26.04
2018-09-20T09:43:52.963Z,25.99
2018-09-20T09:44:52.938Z,25.99
2018-09-20T09:45:52.952Z,26.07
2018-09-20T09:46:52.918Z,25.94
2018-09-20T09:47:52.904Z,26.00
2018-09-20T09:48:52.909Z,26.06
2018-09-20T09:49:52.879Z,26.01
2018-09-20T09:50:52.898Z,26.07
2018-09-20T09:51:52.875Z,26.09
2018-09-20T09:52:52.849Z,26.11
2018-09-20T09:53:52.876Z,26.06
2018-09-20T09:54:52.923Z,26.06
2018-09-20T09:55:52.816Z,25.96
2018-09-20T09:56:52.804Z,26.01
2018-09-20T09:57:52.822Z,26.00
2018-09-20T09:58:52.796Z,25.97
2018-09-20T09:59:52.844Z,26.00
2018-09-20T10:00:52.772Z,26.01
2018-09-20T10:01:52.754Z,25.94
2018-09-20T10:02:52.745Z,26.07
2018-09-20T10:03:52.734Z,26.04
2018-09-20T10:04:52.737Z,26.00
2018-09-20T10:05:52.716Z,26.03
2018-09-20T10:06:52.746Z,26.04
2018-09-20T10:07:52.689Z,26.00
2018-09-20T10:08:52.679Z,26.00
2018-09-20T10:09:52.679Z,26.04
2018-09-20T10:10:52.657Z,26.04
2018-09-20T10:11:52.643Z,26.00
2018-09-20T10:12:52.632Z,26.01
2018-09-20T10:13:52.674Z,26.03
2018-09-20T10:14:52.632Z,26.09
2018-09-20T10:15:52.608Z,26.06
2018-09-20T10:16:52.589Z,26.03
2018-09-20T10:17:52.582Z,26.06
2018-09-20T10:18:52.567Z,26.07
2018-09-20T10:19:52.611Z,26.03
2018-09-20T10:20:52.558Z,26.01
2018-09-20T10:21:52.542Z,26.04
2018-09-20T10:22:52.530Z,25.96
2018-09-20T10:23:52.526Z,25.97
2018-09-20T10:24:52.531Z,26.07
2018-09-20T10:25:52.493Z,25.96
2018-09-20T10:26:52.483Z,26.06
2018-09-20T10:27:52.471Z,26.07
2018-09-20T10:28:52.458Z,26.06
2018-09-20T10:29:52.486Z,26.12
2018-09-20T10:30:52.465Z,26.16
2018-09-20T10:31:52.427Z,26.17
2018-09-20T10:32:52.418Z,26.15
2018-09-20T10:33:52.448Z,26.11
2018-09-20T10:34:52.410Z,26.17
2018-09-20T10:35:52.390Z,26.19
2018-09-20T10:36:52.374Z,26.12
2018-09-20T10:37:52.363Z,26.17
2018-09-20T10:38:52.356Z,26.12
2018-09-20T10:39:52.354Z,26.19
2018-09-20T10:40:52.337Z,26.20
2018-09-20T10:41:52.319Z,26.09
2018-09-20T10:42:52.308Z,26.17
2018-09-20T10:43:52.330Z,26.20
2018-09-20T10:44:52.301Z,26.16
2018-09-20T10:45:52.281Z,26.19
2018-09-20T10:46:52.263Z,26.16
2018-09-20T10:47:52.256Z,26.26
2018-09-20T10:48:52.256Z,26.15
2018-09-20T10:49:52.246Z,26.16
2018-09-20T10:50:52.219Z,26.19
2018-09-20T10:51:52.211Z,26.24
2018-09-20T10:52:52.208Z,26.23
2018-09-20T10:53:52.209Z,26.30
2018-09-20T10:54:52.189Z,26.23
2018-09-20T10:55:52.167Z,26.31
2018-09-20T10:56:52.158Z,26.26
2018-09-20T10:57:52.146Z,26.27
2018-09-20T10:58:52.144Z,26.31
2018-09-20T10:59:52.136Z,26.24
2018-09-20T11:00:52.114Z,26.30
2018-09-20T11:01:52.104Z,26.31
2018-09-20T11:02:52.122Z,26.32
2018-09-20T11:03:52.080Z,26.34
2018-09-20T11:04:52.079Z,26.27
2018-09-20T11:05:52.068Z,26.30
2018-09-20T11:06:52.050Z,26.24
2018-09-20T11:07:52.038Z,26.24
2018-09-20T11:08:52.026Z,26.30
2018-09-20T11:09:52.029Z,26.31
2018-09-20T11:10:52.033Z,26.31
2018-09-20T11:11:51.993Z,26.34
2018-09-20T11:12:51.988Z,26.30
2018-09-20T11:13:51.976Z,26.34
2018-09-20T11:14:51.975Z,26.35
2018-09-20T11:15:51.950Z,26.38
2018-09-20T11:16:51.958Z,26.37
2018-09-20T11:17:51.931Z,26.35
2018-09-20T11:18:51.924Z,26.35
2018-09-20T11:19:51.919Z,26.34
2018-09-20T11:20:51.903Z,26.37
2018-09-20T11:21:51.932Z,26.35
2018-09-20T11:22:51.875Z,26.39
2018-09-20T11:23:51.871Z,26.32
2018-09-20T11:24:51.894Z,26.35
2018-09-20T11:25:51.883Z,26.39
2018-09-20T11:26:51.830Z,26.31
2018-09-20T11:27:51.823Z,26.39
2018-09-20T11:28:51.818Z,26.35
2018-09-20T11:29:51.812Z,26.39
2018-09-20T11:30:51.807Z,26.37
2018-09-20T11:31:51.803Z,26.39
2018-09-20T11:32:51.769Z,26.42
2018-09-20T11:33:51.757Z,26.37
2018-09-20T11:34:51.748Z,26.30
2018-09-20T11:35:51.748Z,26.34
2018-09-20T11:36:51.731Z,26.31
2018-09-20T11:37:51.734Z,26.30
2018-09-20T11:38:51.702Z,26.31
2018-09-20T11:39:51.712Z,26.27
2018-09-20T11:40:51.690Z,26.30
2018-09-20T11:41:51.701Z,26.31
2018-09-20T11:42:51.663Z,26.31
2018-09-20T11:44:05.774Z,26.34
2018-09-20T11:44:59.175Z,26.34
2018-09-20T11:45:51.637Z,26.32
2018-09-20T11:46:51.619Z,26.31
2018-09-20T11:47:51.608Z,26.35
2018-09-20T11:48:51.592Z,26.26
2018-09-20T11:49:51.581Z,26.30
2018-09-20T11:50:51.584Z,26.30
2018-09-20T11:51:51.568Z,26.24
2018-09-20T11:52:51.562Z,26.26
2018-09-20T11:53:51.541Z,26.26
2018-09-20T11:54:51.532Z,26.23
2018-09-20T11:55:51.549Z,26.35
2018-09-20T11:56:51.506Z,26.35
2018-09-20T11:57:51.498Z,26.30
2018-09-20T11:58:51.487Z,26.26
2018-09-20T11:59:51.477Z,26.30
2018-09-20T12:00:51.478Z,26.30
2018-09-20T12:01:51.464Z,26.27
2018-09-20T12:02:51.465Z,26.31
2018-09-20T12:03:51.433Z,26.30
2018-09-20T12:04:51.419Z,26.34
2018-09-20T12:05:51.422Z,26.27
2018-09-20T12:06:51.398Z,26.30
2018-09-20T12:07:51.388Z,26.34
2018-09-20T12:08:51.376Z,26.32
2018-09-20T12:09:51.369Z,26.32
2018-09-20T12:10:51.369Z,26.32
2018-09-20T12:11:51.345Z,26.31
2018-09-20T12:12:51.334Z,26.35
2018-09-20T12:13:51.321Z,26.34
2018-09-20T12:14:51.332Z,26.37
2018-09-20T12:15:51.328Z,26.31
2018-09-20T12:16:51.301Z,26.24
2018-09-20T12:17:51.280Z,26.31
2018-09-20T12:18:51.269Z,26.32
2018-09-20T12:19:51.279Z,26.38
2018-09-20T12:20:51.259Z,26.35
2018-09-20T12:21:51.240Z,26.32
2018-09-20T12:22:51.224Z,26.32
2018-09-20T12:23:51.214Z,26.35
2018-09-20T12:24:51.205Z,26.30
2018-09-20T12:25:51.242Z,26.37
2018-09-20T12:26:51.185Z,26.32
2018-09-20T12:27:51.173Z,26.32
2018-09-20T12:28:51.166Z,26.41
2018-09-20T12:29:51.148Z,26.39
2018-09-20T12:30:51.150Z,26.42
2018-09-20T12:31:51.186Z,26.41
2018-09-20T12:32:51.153Z,26.37
2018-09-20T12:33:51.108Z,26.38
2018-09-20T12:34:51.097Z,26.35
2018-09-20T12:35:51.154Z,26.39
2018-09-20T12:36:51.074Z,26.42
2018-09-20T12:37:51.060Z,26.32
2018-09-20T12:38:51.097Z,26.39
2018-09-20T12:39:51.040Z,26.37
2018-09-20T12:40:51.042Z,26.41
2018-09-20T12:41:51.018Z,26.32
2018-09-20T12:42:51.049Z,26.31
2018-09-20T12:43:50.995Z,26.37
2018-09-20T12:44:50.985Z,26.34
2018-09-20T12:45:50.994Z,26.35
2018-09-20T12:46:50.966Z,26.34
2018-09-20T12:47:50.952Z,26.38
2018-09-20T12:48:50.960Z,26.32
2018-09-20T12:49:50.931Z,26.34
2018-09-20T12:50:50.937Z,26.39
2018-09-20T12:51:50.920Z,26.34
2018-09-20T12:52:50.900Z,26.38